sensor_id;sensor_type;location;lat;lon;timestamp;temperature;humidity
39503;DHT22;26970;49.900;10.774;2022-10-16T00:01:59;14.40;99.90
39503;DHT22;26970;49.900;10.774;2022-10-16T00:04:24;14.40;99.90
39503;DHT22;26970;49.900;10.774;2022-10-16T00:06:50;14.30;99.90
39503;DHT22;26970;49.900;10.774;2022-10-16T00:09:15;14.30;99.90
39503;DHT22;26970;49.900;10.774;2022-10-16T00:11:41;14.30;99.90
39503;DHT22;26970;49.900;10.774;2022-10-16T00:14:10;14.30;99.90
39503;DHT22;26970;49.900;10.774;2022-10-16T00:16:36;14.30;99.90
39503;DHT22;26970;49.900;10.774;2022-10-16T00:19:03;14.40;99.90
39503;DHT22;26970;49.900;10.774;2022-10-16T00:21:30;14.30;99.90
39503;DHT22;26970;49.900;10.774;2022-10-16T00:24:04;14.30;99.90
39503;DHT22;26970;49.900;10.774;2022-10-16T00:26:32;14.20;99.90
39503;DHT22;26970;49.900;10.774;2022-10-16T00:28:58;14.20;99.90
39503;DHT22;26970;49.900;10.774;2022-10-16T00:31:24;14.20;99.90
39503;DHT22;26970;49.900;10.774;2022-10-16T00:33:50;14.20;99.90
39503;DHT22;26970;49.900;10.774;2022-10-16T00:36:18;14.20;99.90
39503;DHT22;26970;49.900;10.774;2022-10-16T00:38:44;14.90;99.90
39503;DHT22;26970;49.900;10.774;2022-10-16T00:41:14;14.20;99.90
39503;DHT22;26970;49.900;10.774;2022-10-16T00:43:43;14.20;99.90
39503;DHT22;26970;49.900;10.774;2022-10-16T00:51:28;14.20;99.90
39503;DHT22;26970;49.900;10.774;2022-10-16T00:53:55;14.20;99.90
39503;DHT22;26970;49.900;10.774;2022-10-16T00:56:21;14.20;99.90
39503;DHT22;26970;49.900;10.774;2022-10-16T00:58:47;14.20;99.90
39503;DHT22;26970;49.900;10.774;2022-10-16T01:01:13;14.60;99.90
39503;DHT22;26970;49.900;10.774;2022-10-16T01:03:38;14.20;99.90
39503;DHT22;26970;49.900;10.774;2022-10-16T01:11:48;14.20;99.90
39503;DHT22;26970;49.900;10.774;2022-10-16T01:14:22;14.20;99.90
39503;DHT22;26970;49.900;10.774;2022-10-16T01:16:55;14.20;99.90
39503;DHT22;26970;49.900;10.774;2022-10-16T01:19:41;14.20;99.90
39503;DHT22;26970;49.900;10.774;2022-10-16T01:22:10;14.20;99.90
39503;DHT22;26970;49.900;10.774;2022-10-16T01:24:40;14.20;99.90
39503;DHT22;26970;49.900;10.774;2022-10-16T01:32:36;14.20;99.90
39503;DHT22;26970;49.900;10.774;2022-10-16T01:35:22;14.20;99.90
39503;DHT22;26970;49.900;10.774;2022-10-16T01:37:54;14.20;99.90
39503;DHT22;26970;49.900;10.774;2022-10-16T01:40:25;14.20;99.90
39503;DHT22;26970;49.900;10.774;2022-10-16T01:43:25;14.20;99.90
39503;DHT22;26970;49.900;10.774;2022-10-16T01:45:52;14.20;99.90
39503;DHT22;26970;49.900;10.774;2022-10-16T01:48:19;14.20;99.90
39503;DHT22;26970;49.900;10.774;2022-10-16T01:50:58;14.20;99.90
39503;DHT22;26970;49.900;10.774;2022-10-16T01:53:25;14.20;99.90
39503;DHT22;26970;49.900;10.774;2022-10-16T01:55:52;14.20;99.90
39503;DHT22;26970;49.900;10.774;2022-10-16T01:58:19;14.30;99.90
39503;DHT22;26970;49.900;10.774;2022-10-16T02:00:47;14.30;99.90
39503;DHT22;26970;49.900;10.774;2022-10-16T02:03:16;14.20;99.90
39503;DHT22;26970;49.900;10.774;2022-10-16T02:05:49;14.20;99.90
39503;DHT22;26970;49.900;10.774;2022-10-16T02:08:15;14.20;99.90
39503;DHT22;26970;49.900;10.774;2022-10-16T02:10:41;14.20;99.90
39503;DHT22;26970;49.900;10.774;2022-10-16T02:13:22;14.20;99.90
39503;DHT22;26970;49.900;10.774;2022-10-16T02:15:49;14.20;99.90
39503;DHT22;26970;49.900;10.774;2022-10-16T02:18:15;14.60;99.90
39503;DHT22;26970;49.900;10.774;2022-10-16T02:20:51;14.20;99.90
39503;DHT22;26970;49.900;10.774;2022-10-16T02:23:32;14.20;99.90
39503;DHT22;26970;49.900;10.774;2022-10-16T02:26:03;14.30;99.90
39503;DHT22;26970;49.900;10.774;2022-10-16T02:28:45;14.30;99.90
39503;DHT22;26970;49.900;10.774;2022-10-16T02:31:14;14.30;99.90
39503;DHT22;26970;49.900;10.774;2022-10-16T02:33:42;14.30;99.90
39503;DHT22;26970;49.900;10.774;2022-10-16T02:36:09;14.30;99.90
39503;DHT22;26970;49.900;10.774;2022-10-16T02:38:35;14.30;99.90
39503;DHT22;26970;49.900;10.774;2022-10-16T02:41:02;14.30;99.90
39503;DHT22;26970;49.900;10.774;2022-10-16T02:43:28;14.30;99.90
39503;DHT22;26970;49.900;10.774;2022-10-16T02:45:54;14.30;99.90
39503;DHT22;26970;49.900;10.774;2022-10-16T02:48:19;14.30;99.90
39503;DHT22;26970;49.900;10.774;2022-10-16T02:50:45;14.20;99.90
39503;DHT22;26970;49.900;10.774;2022-10-16T02:53:10;14.30;99.90
39503;DHT22;26970;49.900;10.774;2022-10-16T02:55:36;14.20;99.90
39503;DHT22;26970;49.900;10.774;2022-10-16T02:58:01;14.20;99.90
39503;DHT22;26970;49.900;10.774;2022-10-16T03:00:27;14.20;99.90
39503;DHT22;26970;49.900;10.774;2022-10-16T03:02:53;14.20;99.90
39503;DHT22;26970;49.900;10.774;2022-10-16T03:05:19;14.20;99.90
39503;DHT22;26970;49.900;10.774;2022-10-16T03:07:45;14.20;99.90
39503;DHT22;26970;49.900;10.774;2022-10-16T03:10:10;14.20;99.90
39503;DHT22;26970;49.900;10.774;2022-10-16T03:12:36;14.20;99.90
39503;DHT22;26970;49.900;10.774;2022-10-16T03:15:02;14.20;99.90
39503;DHT22;26970;49.900;10.774;2022-10-16T03:17:28;14.20;99.90
39503;DHT22;26970;49.900;10.774;2022-10-16T03:19:53;14.30;99.90
39503;DHT22;26970;49.900;10.774;2022-10-16T03:22:19;14.30;99.90
39503;DHT22;26970;49.900;10.774;2022-10-16T03:24:44;14.20;99.90
39503;DHT22;26970;49.900;10.774;2022-10-16T03:27:10;14.30;99.90
39503;DHT22;26970;49.900;10.774;2022-10-16T03:29:35;15.00;99.90
39503;DHT22;26970;49.900;10.774;2022-10-16T03:32:02;14.20;99.90
39503;DHT22;26970;49.900;10.774;2022-10-16T03:34:27;14.20;99.90
39503;DHT22;26970;49.900;10.774;2022-10-16T03:36:53;14.20;99.90
39503;DHT22;26970;49.900;10.774;2022-10-16T03:39:19;14.20;99.90
39503;DHT22;26970;49.900;10.774;2022-10-16T03:41:44;14.20;99.90
39503;DHT22;26970;49.900;10.774;2022-10-16T03:44:12;14.40;99.90
39503;DHT22;26970;49.900;10.774;2022-10-16T03:46:37;14.20;99.90
39503;DHT22;26970;49.900;10.774;2022-10-16T03:49:03;14.20;99.90
39503;DHT22;26970;49.900;10.774;2022-10-16T03:51:28;14.20;99.90
39503;DHT22;26970;49.900;10.774;2022-10-16T03:53:54;14.30;99.90
39503;DHT22;26970;49.900;10.774;2022-10-16T03:56:19;14.20;99.90
39503;DHT22;26970;49.900;10.774;2022-10-16T03:58:45;14.20;99.90
39503;DHT22;26970;49.900;10.774;2022-10-16T04:01:10;14.20;99.90
39503;DHT22;26970;49.900;10.774;2022-10-16T04:03:36;14.30;99.90
39503;DHT22;26970;49.900;10.774;2022-10-16T04:06:01;14.30;99.90
39503;DHT22;26970;49.900;10.774;2022-10-16T04:08:27;14.20;99.90
39503;DHT22;26970;49.900;10.774;2022-10-16T04:10:53;14.30;99.90
39503;DHT22;26970;49.900;10.774;2022-10-16T04:13:18;14.20;99.90
39503;DHT22;26970;49.900;10.774;2022-10-16T04:15:45;14.20;99.90
39503;DHT22;26970;49.900;10.774;2022-10-16T04:18:11;14.20;99.90
39503;DHT22;26970;49.900;10.774;2022-10-16T04:20:36;14.20;99.90
39503;DHT22;26970;49.900;10.774;2022-10-16T04:23:02;14.20;99.90
39503;DHT22;26970;49.900;10.774;2022-10-16T04:25:28;14.20;99.90
39503;DHT22;26970;49.900;10.774;2022-10-16T04:27:54;14.20;99.90
39503;DHT22;26970;49.900;10.774;2022-10-16T04:30:20;14.20;99.90
39503;DHT22;26970;49.900;10.774;2022-10-16T04:32:50;14.20;99.90
39503;DHT22;26970;49.900;10.774;2022-10-16T04:35:18;14.20;99.90
39503;DHT22;26970;49.900;10.774;2022-10-16T04:37:43;14.20;99.90
39503;DHT22;26970;49.900;10.774;2022-10-16T04:40:09;14.20;99.90
39503;DHT22;26970;49.900;10.774;2022-10-16T04:42:35;14.20;99.90
39503;DHT22;26970;49.900;10.774;2022-10-16T04:45:00;14.30;99.90
39503;DHT22;26970;49.900;10.774;2022-10-16T04:47:26;14.20;99.90
39503;DHT22;26970;49.900;10.774;2022-10-16T04:49:51;14.20;99.90
39503;DHT22;26970;49.900;10.774;2022-10-16T04:52:17;14.20;99.90
39503;DHT22;26970;49.900;10.774;2022-10-16T04:54:44;14.20;99.90
39503;DHT22;26970;49.900;10.774;2022-10-16T04:57:10;14.20;99.90
39503;DHT22;26970;49.900;10.774;2022-10-16T04:59:36;14.20;99.90
39503;DHT22;26970;49.900;10.774;2022-10-16T05:02:01;14.20;99.90
39503;DHT22;26970;49.900;10.774;2022-10-16T05:04:27;14.40;99.90
39503;DHT22;26970;49.900;10.774;2022-10-16T05:06:52;14.10;99.90
39503;DHT22;26970;49.900;10.774;2022-10-16T05:09:18;14.10;99.90
39503;DHT22;26970;49.900;10.774;2022-10-16T05:11:44;14.10;99.90
39503;DHT22;26970;49.900;10.774;2022-10-16T05:14:09;14.10;99.90
39503;DHT22;26970;49.900;10.774;2022-10-16T05:16:35;14.10;99.90
39503;DHT22;26970;49.900;10.774;2022-10-16T05:19:00;14.00;99.90
39503;DHT22;26970;49.900;10.774;2022-10-16T05:21:26;14.00;99.90
39503;DHT22;26970;49.900;10.774;2022-10-16T05:23:53;14.00;99.90
39503;DHT22;26970;49.900;10.774;2022-10-16T05:26:19;14.00;99.90
39503;DHT22;26970;49.900;10.774;2022-10-16T05:28:45;14.00;99.90
39503;DHT22;26970;49.900;10.774;2022-10-16T05:31:10;14.00;99.90
39503;DHT22;26970;49.900;10.774;2022-10-16T05:33:36;14.00;99.90
39503;DHT22;26970;49.900;10.774;2022-10-16T05:36:06;14.00;99.90
39503;DHT22;26970;49.900;10.774;2022-10-16T05:38:33;14.00;99.90
39503;DHT22;26970;49.900;10.774;2022-10-16T05:40:59;14.00;99.90
39503;DHT22;26970;49.900;10.774;2022-10-16T05:43:24;14.00;99.90
39503;DHT22;26970;49.900;10.774;2022-10-16T05:48:22;14.10;99.90
39503;DHT22;26970;49.900;10.774;2022-10-16T05:50:47;14.10;99.90
39503;DHT22;26970;49.900;10.774;2022-10-16T05:53:13;14.10;99.90
39503;DHT22;26970;49.900;10.774;2022-10-16T05:55:38;14.10;99.90
39503;DHT22;26970;49.900;10.774;2022-10-16T05:58:04;14.10;99.90
39503;DHT22;26970;49.900;10.774;2022-10-16T06:00:29;14.10;99.90
39503;DHT22;26970;49.900;10.774;2022-10-16T06:02:55;14.10;99.90
39503;DHT22;26970;49.900;10.774;2022-10-16T06:05:20;14.10;99.90
39503;DHT22;26970;49.900;10.774;2022-10-16T06:07:46;14.20;99.90
39503;DHT22;26970;49.900;10.774;2022-10-16T06:10:11;14.20;99.90
39503;DHT22;26970;49.900;10.774;2022-10-16T06:12:37;14.20;99.90
39503;DHT22;26970;49.900;10.774;2022-10-16T06:15:03;14.30;99.90
39503;DHT22;26970;49.900;10.774;2022-10-16T06:17:29;14.10;99.90
39503;DHT22;26970;49.900;10.774;2022-10-16T06:19:54;14.10;99.90
39503;DHT22;26970;49.900;10.774;2022-10-16T06:22:20;14.20;99.90
39503;DHT22;26970;49.900;10.774;2022-10-16T06:24:45;14.10;99.90
39503;DHT22;26970;49.900;10.774;2022-10-16T06:27:11;14.20;99.90
39503;DHT22;26970;49.900;10.774;2022-10-16T06:29:37;14.20;99.90
39503;DHT22;26970;49.900;10.774;2022-10-16T06:32:02;14.10;99.90
39503;DHT22;26970;49.900;10.774;2022-10-16T06:34:28;14.10;99.90
39503;DHT22;26970;49.900;10.774;2022-10-16T06:36:53;14.20;99.90
39503;DHT22;26970;49.900;10.774;2022-10-16T06:39:19;14.20;99.90
39503;DHT22;26970;49.900;10.774;2022-10-16T06:41:45;14.20;99.90
39503;DHT22;26970;49.900;10.774;2022-10-16T06:44:10;14.20;99.90
39503;DHT22;26970;49.900;10.774;2022-10-16T06:46:36;14.70;99.90
39503;DHT22;26970;49.900;10.774;2022-10-16T06:49:02;14.30;99.90
39503;DHT22;26970;49.900;10.774;2022-10-16T06:51:27;14.30;99.90
39503;DHT22;26970;49.900;10.774;2022-10-16T06:53:54;14.30;99.90
39503;DHT22;26970;49.900;10.774;2022-10-16T06:56:24;14.30;99.90
39503;DHT22;26970;49.900;10.774;2022-10-16T06:58:50;14.30;99.90
39503;DHT22;26970;49.900;10.774;2022-10-16T07:01:18;14.40;99.90
39503;DHT22;26970;49.900;10.774;2022-10-16T07:03:44;14.40;99.90
39503;DHT22;26970;49.900;10.774;2022-10-16T07:06:13;14.40;99.90
39503;DHT22;26970;49.900;10.774;2022-10-16T07:08:41;14.40;99.90
39503;DHT22;26970;49.900;10.774;2022-10-16T07:11:10;14.40;99.90
39503;DHT22;26970;49.900;10.774;2022-10-16T07:13:37;14.40;99.90
39503;DHT22;26970;49.900;10.774;2022-10-16T07:16:08;14.40;99.90
39503;DHT22;26970;49.900;10.774;2022-10-16T07:18:34;14.50;99.90
39503;DHT22;26970;49.900;10.774;2022-10-16T07:21:08;14.50;99.90
39503;DHT22;26970;49.900;10.774;2022-10-16T07:23:34;14.50;99.90
39503;DHT22;26970;49.900;10.774;2022-10-16T07:25:59;14.60;99.90
39503;DHT22;26970;49.900;10.774;2022-10-16T07:28:25;14.60;99.90
39503;DHT22;26970;49.900;10.774;2022-10-16T07:30:53;14.60;99.90
39503;DHT22;26970;49.900;10.774;2022-10-16T07:33:18;14.70;99.90
39503;DHT22;26970;49.900;10.774;2022-10-16T07:35:52;14.70;99.90
39503;DHT22;26970;49.900;10.774;2022-10-16T07:38:18;14.70;99.90
39503;DHT22;26970;49.900;10.774;2022-10-16T07:40:44;14.80;99.90
39503;DHT22;26970;49.900;10.774;2022-10-16T07:43:10;14.90;99.90
39503;DHT22;26970;49.900;10.774;2022-10-16T07:45:35;14.90;99.90
39503;DHT22;26970;49.900;10.774;2022-10-16T07:48:01;14.90;99.90
39503;DHT22;26970;49.900;10.774;2022-10-16T07:50:26;14.90;99.90
39503;DHT22;26970;49.900;10.774;2022-10-16T07:52:52;15.00;99.90
39503;DHT22;26970;49.900;10.774;2022-10-16T07:55:17;15.10;99.90
39503;DHT22;26970;49.900;10.774;2022-10-16T07:57:43;15.10;99.90
39503;DHT22;26970;49.900;10.774;2022-10-16T08:00:09;15.20;99.90
39503;DHT22;26970;49.900;10.774;2022-10-16T08:02:39;15.20;99.90
39503;DHT22;26970;49.900;10.774;2022-10-16T08:05:06;15.20;99.90
39503;DHT22;26970;49.900;10.774;2022-10-16T08:07:32;15.30;99.90
39503;DHT22;26970;49.900;10.774;2022-10-16T08:09:57;15.40;99.90
39503;DHT22;26970;49.900;10.774;2022-10-16T08:12:24;15.50;99.90
39503;DHT22;26970;49.900;10.774;2022-10-16T08:14:50;15.60;99.90
39503;DHT22;26970;49.900;10.774;2022-10-16T08:17:15;15.70;99.90
39503;DHT22;26970;49.900;10.774;2022-10-16T08:19:44;15.70;99.90
39503;DHT22;26970;49.900;10.774;2022-10-16T08:22:10;15.90;99.90
39503;DHT22;26970;49.900;10.774;2022-10-16T08:24:38;16.00;99.90
39503;DHT22;26970;49.900;10.774;2022-10-16T08:27:04;16.20;99.90
39503;DHT22;26970;49.900;10.774;2022-10-16T08:29:30;16.10;99.90
39503;DHT22;26970;49.900;10.774;2022-10-16T08:32:00;16.00;99.90
39503;DHT22;26970;49.900;10.774;2022-10-16T08:34:26;16.10;99.90
39503;DHT22;26970;49.900;10.774;2022-10-16T08:36:57;16.00;99.90
39503;DHT22;26970;49.900;10.774;2022-10-16T08:39:22;16.00;99.90
39503;DHT22;26970;49.900;10.774;2022-10-16T08:42:02;15.90;99.90
39503;DHT22;26970;49.900;10.774;2022-10-16T08:47:20;15.90;99.90
39503;DHT22;26970;49.900;10.774;2022-10-16T08:49:59;15.90;99.90
39503;DHT22;26970;49.900;10.774;2022-10-16T08:52:29;15.90;99.90
39503;DHT22;26970;49.900;10.774;2022-10-16T08:54:59;15.80;99.90
39503;DHT22;26970;49.900;10.774;2022-10-16T09:00:16;15.80;99.90
39503;DHT22;26970;49.900;10.774;2022-10-16T09:05:22;15.90;99.90
39503;DHT22;26970;49.900;10.774;2022-10-16T09:13:58;16.00;99.90
39503;DHT22;26970;49.900;10.774;2022-10-16T09:16:46;16.00;99.90
39503;DHT22;26970;49.900;10.774;2022-10-16T09:19:20;16.10;99.90
39503;DHT22;26970;49.900;10.774;2022-10-16T09:21:48;16.10;99.90
39503;DHT22;26970;49.900;10.774;2022-10-16T09:24:17;16.70;99.90
39503;DHT22;26970;49.900;10.774;2022-10-16T09:26:44;16.00;99.90
39503;DHT22;26970;49.900;10.774;2022-10-16T09:29:15;16.00;99.90
39503;DHT22;26970;49.900;10.774;2022-10-16T09:31:41;16.00;99.90
39503;DHT22;26970;49.900;10.774;2022-10-16T09:34:17;16.00;99.90
39503;DHT22;26970;49.900;10.774;2022-10-16T09:36:46;16.10;99.90
39503;DHT22;26970;49.900;10.774;2022-10-16T09:39:12;16.20;99.90
39503;DHT22;26970;49.900;10.774;2022-10-16T09:41:40;16.20;99.90
39503;DHT22;26970;49.900;10.774;2022-10-16T09:44:24;16.20;99.90
39503;DHT22;26970;49.900;10.774;2022-10-16T09:47:05;16.20;99.90
39503;DHT22;26970;49.900;10.774;2022-10-16T09:49:31;16.20;99.90
39503;DHT22;26970;49.900;10.774;2022-10-16T09:52:14;16.20;99.90
39503;DHT22;26970;49.900;10.774;2022-10-16T09:54:57;16.20;99.90
39503;DHT22;26970;49.900;10.774;2022-10-16T09:57:24;16.20;99.90
39503;DHT22;26970;49.900;10.774;2022-10-16T09:59:55;16.20;99.90
39503;DHT22;26970;49.900;10.774;2022-10-16T10:02:34;16.30;99.90
39503;DHT22;26970;49.900;10.774;2022-10-16T10:05:00;16.50;99.90
39503;DHT22;26970;49.900;10.774;2022-10-16T10:07:32;16.30;99.90
39503;DHT22;26970;49.900;10.774;2022-10-16T10:09:59;16.70;99.90
39503;DHT22;26970;49.900;10.774;2022-10-16T10:12:32;16.40;99.90
39503;DHT22;26970;49.900;10.774;2022-10-16T10:15:09;16.40;99.90
39503;DHT22;26970;49.900;10.774;2022-10-16T10:17:48;16.40;99.90
39503;DHT22;26970;49.900;10.774;2022-10-16T10:20:34;16.40;99.90
39503;DHT22;26970;49.900;10.774;2022-10-16T10:23:01;16.60;99.90
39503;DHT22;26970;49.900;10.774;2022-10-16T10:25:59;17.40;99.90
39503;DHT22;26970;49.900;10.774;2022-10-16T10:31:29;16.70;99.90
39503;DHT22;26970;49.900;10.774;2022-10-16T10:40:06;16.70;99.90
39503;DHT22;26970;49.900;10.774;2022-10-16T10:42:43;16.80;99.90
39503;DHT22;26970;49.900;10.774;2022-10-16T10:45:24;16.90;99.90
39503;DHT22;26970;49.900;10.774;2022-10-16T10:47:59;17.00;99.90
39503;DHT22;26970;49.900;10.774;2022-10-16T10:50:37;17.00;99.90
39503;DHT22;26970;49.900;10.774;2022-10-16T11:01:18;17.20;99.90
39503;DHT22;26970;49.900;10.774;2022-10-16T11:09:17;17.40;99.90
39503;DHT22;26970;49.900;10.774;2022-10-16T11:11:49;17.40;99.90
39503;DHT22;26970;49.900;10.774;2022-10-16T11:14:40;18.30;99.90
39503;DHT22;26970;49.900;10.774;2022-10-16T11:17:15;17.40;99.90
39503;DHT22;26970;49.900;10.774;2022-10-16T11:19:53;17.40;99.90
39503;DHT22;26970;49.900;10.774;2022-10-16T11:22:32;17.20;99.90
39503;DHT22;26970;49.900;10.774;2022-10-16T11:27:50;17.20;99.90
39503;DHT22;26970;49.900;10.774;2022-10-16T11:30:29;17.20;99.90
39503;DHT22;26970;49.900;10.774;2022-10-16T11:40:54;16.90;99.90
39503;DHT22;26970;49.900;10.774;2022-10-16T11:43:38;16.90;99.90
39503;DHT22;26970;49.900;10.774;2022-10-16T11:46:15;16.80;99.90
39503;DHT22;26970;49.900;10.774;2022-10-16T11:48:58;16.80;99.90
39503;DHT22;26970;49.900;10.774;2022-10-16T11:51:43;16.80;99.90
39503;DHT22;26970;49.900;10.774;2022-10-16T11:57:09;16.90;99.90
39503;DHT22;26970;49.900;10.774;2022-10-16T11:59:44;17.10;99.90
39503;DHT22;26970;49.900;10.774;2022-10-16T12:02:28;17.30;99.90
39503;DHT22;26970;49.900;10.774;2022-10-16T12:05:19;17.40;99.90
39503;DHT22;26970;49.900;10.774;2022-10-16T12:07:55;17.60;99.90
39503;DHT22;26970;49.900;10.774;2022-10-16T12:10:26;17.70;99.90
39503;DHT22;26970;49.900;10.774;2022-10-16T12:12:53;17.90;99.90
39503;DHT22;26970;49.900;10.774;2022-10-16T12:15:26;18.10;99.90
39503;DHT22;26970;49.900;10.774;2022-10-16T12:17:52;18.10;99.90
39503;DHT22;26970;49.900;10.774;2022-10-16T12:20:31;18.00;99.90
39503;DHT22;26970;49.900;10.774;2022-10-16T12:23:07;18.00;99.90
39503;DHT22;26970;49.900;10.774;2022-10-16T12:25:43;18.10;99.90
39503;DHT22;26970;49.900;10.774;2022-10-16T12:28:21;18.10;99.90
39503;DHT22;26970;49.900;10.774;2022-10-16T12:33:29;18.30;99.90
39503;DHT22;26970;49.900;10.774;2022-10-16T12:35:56;18.30;99.90
39503;DHT22;26970;49.900;10.774;2022-10-16T12:40:59;18.40;99.90
39503;DHT22;26970;49.900;10.774;2022-10-16T12:43:26;18.40;99.90
39503;DHT22;26970;49.900;10.774;2022-10-16T12:46:18;18.40;99.90
39503;DHT22;26970;49.900;10.774;2022-10-16T12:48:46;18.40;99.90
39503;DHT22;26970;49.900;10.774;2022-10-16T12:54:42;18.50;99.90
39503;DHT22;26970;49.900;10.774;2022-10-16T13:02:19;18.70;99.90
39503;DHT22;26970;49.900;10.774;2022-10-16T13:05:08;18.60;99.90
39503;DHT22;26970;49.900;10.774;2022-10-16T13:10:47;18.70;99.90
39503;DHT22;26970;49.900;10.774;2022-10-16T13:23:00;18.80;99.90
39503;DHT22;26970;49.900;10.774;2022-10-16T13:28:01;18.90;99.90
39503;DHT22;26970;49.900;10.774;2022-10-16T13:30:29;18.90;99.90
39503;DHT22;26970;49.900;10.774;2022-10-16T13:33:03;19.00;99.90
39503;DHT22;26970;49.900;10.774;2022-10-16T13:35:32;19.00;99.90
39503;DHT22;26970;49.900;10.774;2022-10-16T13:38:16;19.00;99.90
39503;DHT22;26970;49.900;10.774;2022-10-16T13:43:15;19.70;99.90
39503;DHT22;26970;49.900;10.774;2022-10-16T13:45:41;18.80;99.90
39503;DHT22;26970;49.900;10.774;2022-10-16T13:48:09;18.70;99.90
39503;DHT22;26970;49.900;10.774;2022-10-16T13:50:37;18.80;99.90
39503;DHT22;26970;49.900;10.774;2022-10-16T13:53:13;19.00;99.90
39503;DHT22;26970;49.900;10.774;2022-10-16T13:55:39;19.00;99.90
39503;DHT22;26970;49.900;10.774;2022-10-16T13:58:12;19.30;99.90
39503;DHT22;26970;49.900;10.774;2022-10-16T14:00:38;19.50;99.90
39503;DHT22;26970;49.900;10.774;2022-10-16T14:03:06;19.10;99.90
39503;DHT22;26970;49.900;10.774;2022-10-16T14:05:33;19.60;99.90
39503;DHT22;26970;49.900;10.774;2022-10-16T14:07:59;19.20;99.90
39503;DHT22;26970;49.900;10.774;2022-10-16T14:10:30;19.20;99.90
39503;DHT22;26970;49.900;10.774;2022-10-16T14:13:04;19.00;99.90
39503;DHT22;26970;49.900;10.774;2022-10-16T14:15:31;19.00;99.90
39503;DHT22;26970;49.900;10.774;2022-10-16T14:17:58;19.00;99.90
39503;DHT22;26970;49.900;10.774;2022-10-16T14:20:26;19.00;99.90
39503;DHT22;26970;49.900;10.774;2022-10-16T14:23:01;19.10;99.90
39503;DHT22;26970;49.900;10.774;2022-10-16T14:25:30;19.00;99.90
39503;DHT22;26970;49.900;10.774;2022-10-16T14:28:22;19.10;99.90
39503;DHT22;26970;49.900;10.774;2022-10-16T14:30:56;19.00;99.90
39503;DHT22;26970;49.900;10.774;2022-10-16T14:36:21;19.30;99.90
39503;DHT22;26970;49.900;10.774;2022-10-16T14:41:32;18.90;99.90
39503;DHT22;26970;49.900;10.774;2022-10-16T14:44:03;18.90;99.90
39503;DHT22;26970;49.900;10.774;2022-10-16T14:46:36;18.80;99.90
39503;DHT22;26970;49.900;10.774;2022-10-16T14:51:41;18.60;99.90
39503;DHT22;26970;49.900;10.774;2022-10-16T14:54:11;18.60;99.90
39503;DHT22;26970;49.900;10.774;2022-10-16T14:56:53;19.30;99.90
39503;DHT22;26970;49.900;10.774;2022-10-16T14:59:30;18.60;99.90
39503;DHT22;26970;49.900;10.774;2022-10-16T15:01:56;18.50;99.90
39503;DHT22;26970;49.900;10.774;2022-10-16T15:04:22;18.50;99.90
39503;DHT22;26970;49.900;10.774;2022-10-16T15:06:47;18.50;99.90
39503;DHT22;26970;49.900;10.774;2022-10-16T15:09:13;18.50;99.90
39503;DHT22;26970;49.900;10.774;2022-10-16T15:11:38;18.40;99.90
39503;DHT22;26970;49.900;10.774;2022-10-16T15:14:04;18.40;99.90
39503;DHT22;26970;49.900;10.774;2022-10-16T15:16:31;18.50;99.90
39503;DHT22;26970;49.900;10.774;2022-10-16T15:18:57;18.40;99.90
39503;DHT22;26970;49.900;10.774;2022-10-16T15:21:29;18.40;99.90
39503;DHT22;26970;49.900;10.774;2022-10-16T15:23:56;18.50;99.90
39503;DHT22;26970;49.900;10.774;2022-10-16T15:26:23;18.30;99.90
39503;DHT22;26970;49.900;10.774;2022-10-16T15:28:49;18.20;99.90
39503;DHT22;26970;49.900;10.774;2022-10-16T15:31:15;18.20;99.90
39503;DHT22;26970;49.900;10.774;2022-10-16T15:33:40;18.20;99.90
39503;DHT22;26970;49.900;10.774;2022-10-16T15:36:06;18.20;99.90
39503;DHT22;26970;49.900;10.774;2022-10-16T15:38:32;18.20;99.90
39503;DHT22;26970;49.900;10.774;2022-10-16T15:40:58;18.20;99.90
39503;DHT22;26970;49.900;10.774;2022-10-16T15:43:23;18.40;99.90
39503;DHT22;26970;49.900;10.774;2022-10-16T15:46:04;18.10;99.90
39503;DHT22;26970;49.900;10.774;2022-10-16T15:48:32;18.00;99.90
39503;DHT22;26970;49.900;10.774;2022-10-16T15:50:58;18.00;99.90
39503;DHT22;26970;49.900;10.774;2022-10-16T15:53:24;18.00;99.90
39503;DHT22;26970;49.900;10.774;2022-10-16T15:55:50;17.90;99.90
39503;DHT22;26970;49.900;10.774;2022-10-16T15:58:16;18.10;99.90
39503;DHT22;26970;49.900;10.774;2022-10-16T16:00:41;18.20;99.90
39503;DHT22;26970;49.900;10.774;2022-10-16T16:03:07;18.80;99.90
39503;DHT22;26970;49.900;10.774;2022-10-16T16:05:33;18.00;99.90
39503;DHT22;26970;49.900;10.774;2022-10-16T16:08:00;18.00;99.90
39503;DHT22;26970;49.900;10.774;2022-10-16T16:10:26;18.00;99.90
39503;DHT22;26970;49.900;10.774;2022-10-16T16:12:51;17.90;99.90
39503;DHT22;26970;49.900;10.774;2022-10-16T16:15:19;17.90;99.90
39503;DHT22;26970;49.900;10.774;2022-10-16T16:17:45;18.40;99.90
39503;DHT22;26970;49.900;10.774;2022-10-16T16:20:11;18.20;99.90
39503;DHT22;26970;49.900;10.774;2022-10-16T16:22:37;17.70;99.90
39503;DHT22;26970;49.900;10.774;2022-10-16T16:25:03;18.70;99.90
39503;DHT22;26970;49.900;10.774;2022-10-16T16:27:28;17.60;99.90
39503;DHT22;26970;49.900;10.774;2022-10-16T16:29:55;17.90;99.90
39503;DHT22;26970;49.900;10.774;2022-10-16T16:32:21;17.50;99.90
39503;DHT22;26970;49.900;10.774;2022-10-16T16:34:47;18.30;99.90
39503;DHT22;26970;49.900;10.774;2022-10-16T16:37:13;18.40;99.90
39503;DHT22;26970;49.900;10.774;2022-10-16T16:39:44;18.10;99.90
39503;DHT22;26970;49.900;10.774;2022-10-16T16:42:15;17.50;99.90
39503;DHT22;26970;49.900;10.774;2022-10-16T16:44:51;16.30;99.90
39503;DHT22;26970;49.900;10.774;2022-10-16T16:47:35;17.00;99.90
39503;DHT22;26970;49.900;10.774;2022-10-16T16:50:36;16.80;99.90
39503;DHT22;26970;49.900;10.774;2022-10-16T16:53:02;17.30;99.90
39503;DHT22;26970;49.900;10.774;2022-10-16T16:55:30;17.30;99.90
39503;DHT22;26970;49.900;10.774;2022-10-16T16:58:04;17.30;99.90
39503;DHT22;26970;49.900;10.774;2022-10-16T17:00:53;18.30;99.90
39503;DHT22;26970;49.900;10.774;2022-10-16T17:03:36;18.30;99.90
39503;DHT22;26970;49.900;10.774;2022-10-16T17:06:06;17.20;99.90
39503;DHT22;26970;49.900;10.774;2022-10-16T17:09:00;17.20;99.90
39503;DHT22;26970;49.900;10.774;2022-10-16T17:11:35;17.20;99.90
39503;DHT22;26970;49.900;10.774;2022-10-16T17:14:14;17.20;99.90
39503;DHT22;26970;49.900;10.774;2022-10-16T17:16:43;17.30;99.90
39503;DHT22;26970;49.900;10.774;2022-10-16T17:19:16;17.20;99.90